Buncombe, Illinois
Current Conditions -  °F | °C
As of 9:15 PM on Monday 20 Oct 2014 (Local Time) from KMWA Reporting Station
Clear Clear  
Wind Chill: 63°   Ceiling: Unl
Heat Index: 63°   Visibility: 10mi
Dew Point: 45°   Wind: 6mph
Humidity: 52%   Direction: 350°N
Pressure: 30.01"   Gusts: NA
Location:  37.47°N, 88.98°W
Report Text: KMWA 210215Z AUTO 35005KT 10SM CLR 17/07 A3001 RMK AO2
Loading
Personal Weather Stations






























Interactive Weather Map
Tropical Storm Tracking
New forecast layout! Learn more

10-Day Weather Forecast

Advertisements
Track Severe Weather on mobile